createdAt,value
2022-09-22T00:01:55.419Z,99.90
2022-09-22T00:04:23.533Z,99.90
2022-09-22T00:06:53.322Z,99.90
2022-09-22T00:09:22.603Z,99.90
2022-09-22T00:11:54.010Z,99.90
2022-09-22T00:14:24.320Z,99.90
2022-09-22T00:16:54.023Z,99.90
2022-09-22T00:19:25.169Z,99.90
2022-09-22T00:21:55.243Z,99.90
2022-09-22T00:24:24.496Z,99.90
2022-09-22T00:26:58.272Z,99.90
2022-09-22T00:29:29.003Z,99.90
2022-09-22T00:32:06.479Z,99.90
2022-09-22T00:34:36.879Z,99.90
2022-09-22T00:37:09.525Z,99.90
2022-09-22T00:39:49.508Z,99.90
2022-09-22T00:42:31.993Z,99.90
2022-09-22T00:45:00.218Z,99.90
2022-09-22T00:47:36.932Z,99.90
2022-09-22T00:50:17.884Z,99.90
2022-09-22T00:52:53.018Z,99.90
2022-09-22T00:55:38.636Z,99.90
2022-09-22T00:58:12.085Z,99.90
2022-09-22T01:00:48.444Z,99.90
2022-09-22T01:03:39.272Z,99.90
2022-09-22T01:06:12.128Z,99.90
2022-09-22T01:08:46.268Z,99.90
2022-09-22T01:11:16.064Z,99.90
2022-09-22T01:13:52.505Z,99.90
2022-09-22T01:16:35.889Z,99.90
2022-09-22T01:19:40.082Z,99.90
2022-09-22T01:22:29.867Z,99.90
2022-09-22T01:25:18.374Z,99.90
2022-09-22T01:28:15.005Z,99.90
2022-09-22T01:30:56.633Z,99.90
2022-09-22T01:33:36.140Z,99.90
2022-09-22T01:36:16.818Z,99.90
2022-09-22T01:38:53.933Z,99.90
2022-09-22T01:41:40.261Z,99.90
2022-09-22T01:44:13.832Z,99.90
2022-09-22T01:46:54.945Z,99.90
2022-09-22T01:49:25.375Z,99.90
2022-09-22T01:51:58.216Z,99.90
2022-09-22T01:54:31.420Z,99.90
2022-09-22T01:57:06.199Z,99.90
2022-09-22T01:59:39.242Z,99.90
2022-09-22T02:02:16.940Z,99.90
2022-09-22T02:04:48.336Z,99.90
2022-09-22T02:07:25.951Z,99.90
2022-09-22T02:09:56.469Z,99.90
2022-09-22T02:12:30.188Z,99.90
2022-09-22T02:15:02.065Z,99.90
2022-09-22T02:17:35.239Z,99.90
2022-09-22T02:20:06.789Z,99.90
2022-09-22T02:22:35.018Z,99.90
2022-09-22T02:25:03.390Z,99.90
2022-09-22T02:27:39.564Z,99.90
2022-09-22T02:30:23.858Z,99.90
2022-09-22T02:32:58.704Z,99.90
2022-09-22T02:35:30.327Z,99.90
2022-09-22T02:38:05.391Z,99.90
2022-09-22T02:40:42.896Z,99.90
2022-09-22T02:43:21.156Z,99.90
2022-09-22T02:46:25.428Z,99.90
2022-09-22T02:49:46.351Z,99.90
2022-09-22T02:52:46.222Z,99.90
2022-09-22T02:55:20.073Z,99.90
2022-09-22T02:57:48.656Z,99.90
2022-09-22T03:00:16.945Z,99.90
2022-09-22T03:02:44.885Z,99.90
2022-09-22T03:05:16.135Z,99.90
2022-09-22T03:07:48.133Z,99.90
2022-09-22T03:10:16.285Z,99.90
2022-09-22T03:13:08.945Z,99.90
2022-09-22T03:15:32.384Z,99.90
2022-09-22T03:18:00.340Z,99.90
2022-09-22T03:20:28.945Z,99.90
2022-09-22T03:22:58.280Z,99.90
2022-09-22T03:25:28.416Z,99.90
2022-09-22T03:27:56.360Z,99.90
2022-09-22T03:30:24.435Z,99.90
2022-09-22T03:32:52.317Z,99.90
2022-09-22T03:35:20.238Z,99.90
2022-09-22T03:37:48.281Z,99.90
2022-09-22T03:40:17.878Z,99.90
2022-09-22T03:42:45.790Z,99.90
2022-09-22T03:45:14.991Z,99.90
2022-09-22T03:47:42.922Z,99.90
2022-09-22T03:50:11.629Z,99.90
2022-09-22T03:52:40.117Z,99.90
2022-09-22T03:55:09.297Z,99.90
2022-09-22T03:57:38.806Z,99.90
2022-09-22T04:00:08.707Z,99.90
2022-09-22T04:02:42.434Z,99.90
2022-09-22T04:05:11.548Z,99.90
2022-09-22T04:07:39.762Z,99.90
2022-09-22T04:10:09.005Z,99.90
2022-09-22T04:12:38.253Z,99.90
2022-09-22T04:15:07.234Z,99.90
2022-09-22T04:17:37.000Z,99.90
2022-09-22T04:20:07.055Z,99.90
2022-09-22T04:22:35.321Z,99.90
2022-09-22T04:25:03.291Z,99.90
2022-09-22T04:27:31.134Z,99.90
2022-09-22T04:30:00.901Z,99.90
2022-09-22T04:32:28.799Z,99.90
2022-09-22T04:34:56.720Z,99.90
2022-09-22T04:37:24.628Z,99.90
2022-09-22T04:39:54.260Z,99.90
2022-09-22T04:42:22.416Z,99.90
2022-09-22T04:44:50.335Z,99.90
2022-09-22T04:47:19.695Z,99.90
2022-09-22T04:49:47.581Z,99.90
2022-09-22T04:52:15.394Z,99.90
2022-09-22T04:54:43.337Z,99.90
2022-09-22T04:57:11.226Z,99.90
2022-09-22T04:59:39.194Z,99.90
2022-09-22T05:02:07.313Z,99.90
2022-09-22T05:04:36.606Z,99.90
2022-09-22T05:07:04.785Z,99.90
2022-09-22T05:09:33.256Z,99.90
2022-09-22T05:12:01.197Z,99.90
2022-09-22T05:14:29.705Z,99.90
2022-09-22T05:16:57.768Z,99.90
2022-09-22T05:19:25.782Z,99.90
2022-09-22T05:21:54.995Z,99.90
2022-09-22T05:24:22.938Z,99.90
2022-09-22T05:26:50.822Z,99.90
2022-09-22T05:29:18.745Z,99.90
2022-09-22T05:31:47.178Z,99.90
2022-09-22T05:34:15.073Z,99.90
2022-09-22T05:36:42.974Z,99.90
2022-09-22T05:39:12.282Z,99.90
2022-09-22T05:41:40.516Z,99.90
2022-09-22T05:44:08.963Z,99.90
2022-09-22T05:46:36.882Z,99.90
2022-09-22T05:49:04.855Z,99.90
2022-09-22T05:51:32.765Z,99.90
2022-09-22T05:54:00.769Z,99.90
2022-09-22T05:56:31.962Z,99.90
2022-09-22T05:59:01.848Z,99.90
2022-09-22T06:01:32.809Z,99.90
2022-09-22T06:04:00.909Z,99.90
2022-09-22T06:06:33.250Z,99.90
2022-09-22T06:09:01.467Z,99.90
2022-09-22T06:11:35.011Z,99.90
2022-09-22T06:14:02.982Z,99.90
2022-09-22T06:16:31.907Z,99.90
2022-09-22T06:19:02.163Z,99.90
2022-09-22T06:21:30.091Z,99.90
2022-09-22T06:23:58.115Z,99.90
2022-09-22T06:26:25.941Z,99.90
2022-09-22T06:28:55.218Z,99.90
2022-09-22T06:31:23.152Z,99.90
2022-09-22T06:33:53.153Z,99.90
2022-09-22T06:36:30.389Z,99.90
2022-09-22T06:38:59.244Z,99.90
2022-09-22T06:41:27.549Z,99.90
2022-09-22T06:44:05.360Z,99.90
2022-09-22T06:46:34.856Z,99.90
2022-09-22T06:49:03.800Z,99.80
2022-09-22T06:51:33.785Z,99.60
2022-09-22T06:54:04.110Z,99.30
2022-09-22T06:56:36.817Z,99.30
2022-09-22T06:59:13.495Z,99.40
2022-09-22T07:01:43.094Z,99.20
2022-09-22T07:04:12.183Z,99.20
2022-09-22T07:06:40.698Z,99.00
2022-09-22T07:09:09.233Z,98.70
2022-09-22T07:11:39.986Z,99.10
2022-09-22T07:14:10.240Z,99.00
2022-09-22T07:16:39.916Z,98.80
2022-09-22T07:19:08.171Z,99.30
2022-09-22T07:21:38.229Z,99.50
2022-09-22T07:24:08.382Z,99.10
2022-09-22T07:26:38.112Z,99.10
2022-09-22T07:29:08.421Z,99.20
2022-09-22T07:31:38.060Z,99.70
2022-09-22T07:34:06.011Z,99.30
2022-09-22T07:36:36.912Z,99.80
2022-09-22T07:39:07.306Z,99.30
2022-09-22T07:41:41.530Z,99.60
2022-09-22T07:44:28.077Z,99.00
2022-09-22T07:46:57.646Z,99.00
2022-09-22T07:49:25.635Z,99.00
2022-09-22T07:51:55.056Z,98.10
2022-09-22T07:54:23.722Z,98.30
2022-09-22T07:56:56.521Z,98.80
2022-09-22T07:59:24.980Z,98.70
2022-09-22T08:01:53.050Z,97.00
2022-09-22T08:04:23.715Z,96.90
2022-09-22T08:06:55.536Z,97.60
2022-09-22T08:09:24.359Z,97.30
2022-09-22T08:11:53.494Z,97.40
2022-09-22T08:14:22.997Z,97.20
2022-09-22T08:16:51.988Z,97.10
2022-09-22T08:19:23.036Z,97.10
2022-09-22T08:21:54.243Z,95.70
2022-09-22T08:24:23.467Z,97.50
2022-09-22T08:26:53.769Z,97.80
2022-09-22T08:29:21.963Z,96.90
2022-09-22T08:31:51.308Z,97.00
2022-09-22T08:34:20.136Z,97.30
2022-09-22T08:36:49.850Z,97.00
2022-09-22T08:39:18.971Z,97.50
2022-09-22T08:42:01.149Z,98.60
2022-09-22T08:44:37.419Z,97.30
2022-09-22T08:47:06.349Z,95.00
2022-09-22T08:50:01.506Z,95.30
2022-09-22T08:52:39.803Z,96.20
2022-09-22T08:55:15.965Z,96.30
2022-09-22T08:57:59.826Z,96.70
2022-09-22T09:00:33.211Z,96.70
2022-09-22T09:03:16.364Z,98.40
2022-09-22T09:06:11.094Z,97.10
2022-09-22T09:09:05.112Z,97.10
2022-09-22T09:11:57.954Z,95.80
2022-09-22T09:14:47.618Z,95.80
2022-09-22T09:17:19.598Z,95.50
2022-09-22T09:19:51.408Z,94.60
2022-09-22T09:22:25.052Z,95.20
2022-09-22T09:27:51.818Z,94.70
2022-09-22T09:30:21.094Z,92.20
2022-09-22T09:32:51.503Z,93.30
2022-09-22T09:35:26.505Z,94.50
2022-09-22T09:37:58.737Z,92.90
2022-09-22T09:40:28.965Z,95.10
2022-09-22T09:43:01.698Z,95.00
2022-09-22T09:45:38.406Z,94.00
2022-09-22T09:48:17.386Z,93.40
2022-09-22T09:50:45.266Z,94.10
2022-09-22T09:53:31.097Z,93.60
2022-09-22T09:56:00.396Z,94.30
2022-09-22T09:58:45.829Z,93.70
2022-09-22T10:01:15.313Z,94.00
2022-09-22T10:03:46.917Z,93.90
2022-09-22T10:06:15.909Z,94.10
2022-09-22T10:08:46.515Z,91.90
2022-09-22T10:11:16.030Z,92.40
2022-09-22T10:13:44.944Z,90.90
2022-09-22T10:16:22.706Z,92.40
2022-09-22T10:18:52.205Z,91.90
2022-09-22T10:21:21.812Z,94.20
2022-09-22T10:23:51.294Z,93.10
2022-09-22T10:26:26.777Z,92.10
2022-09-22T10:29:10.616Z,92.70
2022-09-22T10:31:38.922Z,92.70
2022-09-22T10:34:25.262Z,93.50
2022-09-22T10:36:53.651Z,93.70
2022-09-22T10:39:24.339Z,93.90
2022-09-22T10:41:54.020Z,95.00
2022-09-22T10:44:40.153Z,95.20
2022-09-22T10:47:31.085Z,95.50
2022-09-22T10:50:31.310Z,94.80
2022-09-22T10:53:10.911Z,95.20
2022-09-22T10:55:48.446Z,96.20
2022-09-22T10:58:48.716Z,95.90
2022-09-22T11:01:37.465Z,95.00
2022-09-22T11:04:28.617Z,96.20
2022-09-22T11:07:30.337Z,96.70
2022-09-22T11:10:21.141Z,94.80
2022-09-22T11:12:56.889Z,96.80
2022-09-22T11:15:41.595Z,95.10
2022-09-22T11:18:37.588Z,94.10
2022-09-22T11:21:18.303Z,94.10
2022-09-22T11:24:00.992Z,92.80
2022-09-22T11:26:47.700Z,92.50
2022-09-22T11:29:41.673Z,93.00
2022-09-22T11:32:30.060Z,93.10
2022-09-22T11:35:18.392Z,93.50
2022-09-22T11:38:01.741Z,94.10
2022-09-22T11:40:41.627Z,91.40
2022-09-22T11:43:32.191Z,90.80
2022-09-22T11:46:07.609Z,91.00
2022-09-22T11:48:51.275Z,91.50
2022-09-22T11:51:38.743Z,92.00
2022-09-22T11:54:23.526Z,91.30
2022-09-22T11:56:53.572Z,91.40
2022-09-22T11:59:30.870Z,91.90
2022-09-22T12:02:04.650Z,91.50
2022-09-22T12:04:41.645Z,92.00
2022-09-22T12:07:17.268Z,92.60
2022-09-22T12:09:51.302Z,92.00
2022-09-22T12:12:22.330Z,92.90
2022-09-22T12:14:59.221Z,93.50
2022-09-22T12:17:36.746Z,94.00
2022-09-22T12:20:22.267Z,94.40
2022-09-22T12:23:18.017Z,94.60
2022-09-22T12:25:53.969Z,95.30
2022-09-22T12:28:25.791Z,95.50
2022-09-22T12:31:10.254Z,96.00
2022-09-22T12:33:40.553Z,95.80
2022-09-22T12:36:10.150Z,95.40
2022-09-22T12:38:38.883Z,96.10
2022-09-22T12:41:08.108Z,96.00
2022-09-22T12:43:37.637Z,96.70
2022-09-22T12:46:16.814Z,96.60
2022-09-22T12:48:46.745Z,96.80
2022-09-22T12:51:32.014Z,98.10
2022-09-22T12:54:38.664Z,96.90
2022-09-22T12:57:26.132Z,95.70
2022-09-22T13:00:20.670Z,95.60
2022-09-22T13:02:49.896Z,96.40
2022-09-22T13:05:35.535Z,96.00
2022-09-22T13:08:05.391Z,95.90
2022-09-22T13:10:53.741Z,95.90
2022-09-22T13:13:43.761Z,95.50
2022-09-22T13:16:36.296Z,94.80
2022-09-22T13:19:09.021Z,94.70
2022-09-22T13:21:37.098Z,94.30
2022-09-22T13:24:07.374Z,94.90
2022-09-22T13:26:36.863Z,91.60
2022-09-22T13:29:12.968Z,93.50
2022-09-22T13:31:43.770Z,93.20
2022-09-22T13:34:23.753Z,93.40
2022-09-22T13:36:55.203Z,94.20
2022-09-22T13:39:28.239Z,92.60
2022-09-22T13:42:00.191Z,94.40
2022-09-22T13:44:31.771Z,94.50
2022-09-22T13:47:02.817Z,94.40
2022-09-22T13:49:38.690Z,93.80
2022-09-22T13:52:09.068Z,93.30
2022-09-22T13:54:39.973Z,92.40
2022-09-22T13:57:18.617Z,91.80
2022-09-22T13:59:46.706Z,90.90
2022-09-22T14:02:15.191Z,91.10
2022-09-22T14:04:51.366Z,91.30
2022-09-22T14:07:21.972Z,91.50
2022-09-22T14:09:51.691Z,91.70
2022-09-22T14:12:20.708Z,92.70
2022-09-22T14:14:48.673Z,92.00
2022-09-22T14:17:20.985Z,92.10
2022-09-22T14:19:55.962Z,92.50
2022-09-22T14:22:25.821Z,92.70
2022-09-22T14:24:57.140Z,93.60
2022-09-22T14:27:28.264Z,93.70
2022-09-22T14:29:58.087Z,93.70
2022-09-22T14:32:31.550Z,93.50
2022-09-22T14:35:02.458Z,94.30
2022-09-22T14:37:33.913Z,93.50
2022-09-22T14:40:06.531Z,93.90
2022-09-22T14:42:34.989Z,93.90
2022-09-22T14:45:22.218Z,92.20
2022-09-22T14:48:17.132Z,92.60
2022-09-22T14:50:46.431Z,93.50
2022-09-22T14:53:20.153Z,92.70
2022-09-22T14:55:53.257Z,91.60
2022-09-22T14:58:24.649Z,92.00
2022-09-22T15:01:14.564Z,91.90
2022-09-22T15:03:45.063Z,91.80
2022-09-22T15:06:15.180Z,91.10
2022-09-22T15:08:49.354Z,91.30
2022-09-22T15:11:19.718Z,91.10
2022-09-22T15:13:50.776Z,91.40
2022-09-22T15:16:39.567Z,91.00
2022-09-22T15:19:11.815Z,90.30
2022-09-22T15:21:47.454Z,87.10
2022-09-22T15:24:18.210Z,90.00
2022-09-22T15:26:47.421Z,90.80
2022-09-22T15:29:17.342Z,91.10
2022-09-22T15:31:45.359Z,90.50
2022-09-22T15:34:16.461Z,91.20
2022-09-22T15:36:48.833Z,91.60
2022-09-22T15:39:21.316Z,92.40
2022-09-22T15:41:54.463Z,92.30
2022-09-22T15:44:22.750Z,92.30
2022-09-22T15:46:53.212Z,92.70
2022-09-22T15:49:25.983Z,92.60
2022-09-22T15:51:55.945Z,92.90
2022-09-22T15:54:24.934Z,92.90
2022-09-22T15:56:56.407Z,93.30
2022-09-22T15:59:28.010Z,92.50
2022-09-22T16:01:57.311Z,93.20
2022-09-22T16:04:27.410Z,93.90
2022-09-22T16:06:59.014Z,94.30
2022-09-22T16:09:26.906Z,95.00
2022-09-22T16:11:56.433Z,95.80
2022-09-22T16:14:24.658Z,96.50
2022-09-22T16:16:52.800Z,96.90
2022-09-22T16:19:20.710Z,97.40
2022-09-22T16:21:51.508Z,98.10
2022-09-22T16:24:19.387Z,98.50
2022-09-22T16:26:47.289Z,98.80
2022-09-22T16:29:16.815Z,99.40
2022-09-22T16:31:44.804Z,99.60
2022-09-22T16:34:12.888Z,99.90
2022-09-22T16:36:41.721Z,99.90
2022-09-22T16:39:09.741Z,99.90
2022-09-22T16:41:38.115Z,99.90
2022-09-22T16:44:06.251Z,99.90
2022-09-22T16:46:38.322Z,99.90
2022-09-22T16:49:08.809Z,99.90
2022-09-22T16:51:39.028Z,99.90
2022-09-22T16:54:08.157Z,99.90
2022-09-22T16:56:38.429Z,99.90
2022-09-22T16:59:06.912Z,99.90
2022-09-22T17:01:38.223Z,99.90
2022-09-22T17:04:08.084Z,99.90
2022-09-22T17:06:37.672Z,99.90
2022-09-22T17:09:06.757Z,99.90
2022-09-22T17:11:36.976Z,99.90
2022-09-22T17:14:12.188Z,99.90
2022-09-22T17:16:46.692Z,99.90
2022-09-22T17:19:17.178Z,99.90
2022-09-22T17:21:46.475Z,99.90
2022-09-22T17:24:15.038Z,99.90
2022-09-22T17:26:47.217Z,99.90
2022-09-22T17:29:16.868Z,99.90
2022-09-22T17:31:47.964Z,99.90
2022-09-22T17:34:16.082Z,99.90
2022-09-22T17:36:44.093Z,99.90
2022-09-22T17:39:12.281Z,99.90
2022-09-22T17:41:45.392Z,99.90
2022-09-22T17:44:14.761Z,99.90
2022-09-22T17:47:02.702Z,99.90
2022-09-22T17:49:49.294Z,99.90
2022-09-22T17:52:35.153Z,99.90
2022-09-22T17:55:08.027Z,99.90
2022-09-22T17:57:37.629Z,99.90
2022-09-22T18:00:07.814Z,99.90
2022-09-22T18:02:38.155Z,99.90
2022-09-22T18:05:09.423Z,99.90
2022-09-22T18:07:40.287Z,99.90
2022-09-22T18:10:10.057Z,99.90
2022-09-22T18:12:38.166Z,99.90
2022-09-22T18:15:07.172Z,99.90
2022-09-22T18:17:41.501Z,99.90
2022-09-22T18:20:12.801Z,99.90
2022-09-22T18:22:41.617Z,99.90
2022-09-22T18:25:10.442Z,99.90
2022-09-22T18:27:39.094Z,99.90
2022-09-22T18:30:08.443Z,99.90
2022-09-22T18:32:36.341Z,99.90
2022-09-22T18:35:05.748Z,99.90
2022-09-22T18:37:35.118Z,99.90
2022-09-22T18:40:03.520Z,99.90
2022-09-22T18:42:32.351Z,99.90
2022-09-22T18:45:00.317Z,99.90
2022-09-22T18:47:28.217Z,99.90
2022-09-22T18:49:56.914Z,99.90
2022-09-22T18:52:28.611Z,99.90
2022-09-22T18:54:58.904Z,99.90
2022-09-22T18:57:28.596Z,99.90
2022-09-22T19:00:00.277Z,99.90
2022-09-22T19:02:28.570Z,99.90
2022-09-22T19:04:56.590Z,99.90
2022-09-22T19:07:43.935Z,99.90
2022-09-22T19:10:15.171Z,99.90
2022-09-22T19:12:43.481Z,99.90
2022-09-22T19:15:15.159Z,99.90
2022-09-22T19:17:46.123Z,99.90
2022-09-22T19:20:15.741Z,99.90
2022-09-22T19:22:44.322Z,99.90
2022-09-22T19:25:13.807Z,99.90
2022-09-22T19:27:41.847Z,99.90
2022-09-22T19:30:11.366Z,99.90
2022-09-22T19:32:39.539Z,99.90
2022-09-22T19:35:08.850Z,99.90
2022-09-22T19:37:37.050Z,99.90
2022-09-22T19:40:06.156Z,99.90
2022-09-22T19:42:40.051Z,99.90
2022-09-22T19:45:08.988Z,99.90
2022-09-22T19:47:37.209Z,99.90
2022-09-22T19:50:08.591Z,99.90
2022-09-22T19:52:37.731Z,99.90
2022-09-22T19:55:06.559Z,99.90
2022-09-22T19:57:41.120Z,99.90
2022-09-22T20:00:10.809Z,99.90
2022-09-22T20:02:42.094Z,99.90
2022-09-22T20:05:19.547Z,99.90
2022-09-22T20:07:47.673Z,99.90
2022-09-22T20:10:17.258Z,99.90
2022-09-22T20:12:47.834Z,99.90
2022-09-22T20:15:16.005Z,99.90
2022-09-22T20:17:45.937Z,99.90
2022-09-22T20:20:14.645Z,99.90
2022-09-22T20:22:42.596Z,99.90
2022-09-22T20:25:21.838Z,99.90
2022-09-22T20:27:51.225Z,99.90
2022-09-22T20:30:19.282Z,99.90
2022-09-22T20:32:47.469Z,99.90
2022-09-22T20:35:17.963Z,99.90
2022-09-22T20:37:46.382Z,99.90
2022-09-22T20:40:18.591Z,99.90
2022-09-22T20:42:46.949Z,99.90
2022-09-22T20:45:18.122Z,99.90
2022-09-22T20:47:46.019Z,99.90
2022-09-22T20:50:14.002Z,99.90
2022-09-22T20:52:42.503Z,99.90
2022-09-22T20:55:11.531Z,99.90
2022-09-22T20:57:43.748Z,99.90
2022-09-22T21:00:15.240Z,99.90
2022-09-22T21:02:45.328Z,99.90
2022-09-22T21:05:13.261Z,99.90
2022-09-22T21:07:41.262Z,99.90
2022-09-22T21:10:27.530Z,99.90
2022-09-22T21:12:56.081Z,99.90
2022-09-22T21:15:24.180Z,99.90
2022-09-22T21:17:59.058Z,99.90
2022-09-22T21:20:34.547Z,99.90
2022-09-22T21:23:02.630Z,99.90
2022-09-22T21:25:31.201Z,99.90
2022-09-22T21:27:59.108Z,99.90
2022-09-22T21:30:27.014Z,99.90
2022-09-22T21:32:56.328Z,99.90
2022-09-22T21:35:24.301Z,99.90
2022-09-22T21:37:56.067Z,99.90
2022-09-22T21:40:27.171Z,99.90
2022-09-22T21:42:55.270Z,99.90
2022-09-22T21:45:23.226Z,99.90
2022-09-22T21:47:51.387Z,99.90
2022-09-22T21:50:20.609Z,99.90
2022-09-22T21:52:48.747Z,99.90
2022-09-22T21:55:16.754Z,99.90
2022-09-22T21:57:44.610Z,99.90
2022-09-22T22:00:14.227Z,99.90
2022-09-22T22:02:56.074Z,99.90
2022-09-22T22:05:25.289Z,99.90
2022-09-22T22:07:53.220Z,99.90
2022-09-22T22:10:21.359Z,99.90
2022-09-22T22:12:49.278Z,99.90
2022-09-22T22:15:17.438Z,99.90
2022-09-22T22:17:45.398Z,99.90
2022-09-22T22:20:13.320Z,99.90
2022-09-22T22:22:42.594Z,99.90
2022-09-22T22:25:17.115Z,99.90
2022-09-22T22:27:46.622Z,99.90
2022-09-22T22:30:14.640Z,99.90
2022-09-22T22:32:43.064Z,99.90
2022-09-22T22:35:12.334Z,99.90
2022-09-22T22:37:45.606Z,99.90
2022-09-22T22:40:13.593Z,99.90
2022-09-22T22:42:41.887Z,99.90
2022-09-22T22:45:11.241Z,99.90
2022-09-22T22:47:39.281Z,99.90
2022-09-22T22:50:08.695Z,99.90
2022-09-22T22:52:39.958Z,99.90
2022-09-22T22:55:10.317Z,99.90
2022-09-22T22:57:39.748Z,99.90
2022-09-22T23:00:09.039Z,99.90
2022-09-22T23:02:37.163Z,99.90
2022-09-22T23:05:05.537Z,99.90
2022-09-22T23:07:33.540Z,99.90
2022-09-22T23:10:07.035Z,99.90
2022-09-22T23:12:39.214Z,99.90
2022-09-22T23:15:09.272Z,99.90
2022-09-22T23:17:37.381Z,99.90
2022-09-22T23:20:06.934Z,99.90
2022-09-22T23:22:35.430Z,99.90
2022-09-22T23:25:06.534Z,99.90
2022-09-22T23:27:35.988Z,99.90
2022-09-22T23:30:04.012Z,99.90
2022-09-22T23:32:31.940Z,99.90
2022-09-22T23:34:59.854Z,99.90
2022-09-22T23:37:27.849Z,99.90
2022-09-22T23:39:55.903Z,99.90
2022-09-22T23:42:24.305Z,99.90
2022-09-22T23:44:53.610Z,99.90
2022-09-22T23:47:21.678Z,99.90
2022-09-22T23:49:49.531Z,99.90
2022-09-22T23:52:17.418Z,99.90
2022-09-22T23:54:45.320Z,99.90
2022-09-22T23:57:13.219Z,99.90
2022-09-22T23:59:41.094Z,99.90
